Surface/Precipitation History
02/25/2015 21:04  to  2/26/2015 21:04
Change End Date:
Date/Time
(MST)
Sf
Temp Chem Water Layer Surface Precipitation
Sf Sub Frz Factor Pct Depth IcePct Cond Salin Type Intens Accum Rate
02/26/2015 20:57 Ice Watch 12.9F 18F - 70 - - - 2 mhos 1034 None None - -
02/26/2015 20:54 Ice Watch 12.9F 18F - 70 - - - 2 mhos 1034 None None - -
02/26/2015 20:44 Ice Watch 12.9F 18F - 75 - - - 2 mhos 1022 None None - -
02/26/2015 20:42 Ice Watch 13.1F 18F - 75 - - - 2 mhos 1019 None None - -
02/26/2015 20:34 Ice Watch 13.3F 19F - 75 - - - 2 mhos 1006 None None - -
02/26/2015 20:27 Ice Watch 13.5F 19F - 75 - - - 2 mhos 1003 None None - -
02/26/2015 20:24 Ice Watch 13.5F 19F - 75 - - - 2 mhos 1003 None None - -
02/26/2015 20:14 Ice Watch 13.8F 19F - 70 - - - 2 mhos 988 None None - -
02/26/2015 20:12 Ice Watch 13.8F 19F - 70 - - - 2 mhos 988 None None - -
02/26/2015 20:04 Ice Watch 14.0F 19F - 65 - - - 2 mhos 974 None None - -
02/26/2015 19:57 Ice Watch 14.2F 20F - 50 - - - 2 mhos 972 None None - -
02/26/2015 19:54 Ice Watch 14.2F 20F - 45 - - - 2 mhos 972 None None - -
02/26/2015 19:44 Ice Watch 14.5F 20F - 35 - - - 2 mhos 949 None None - -
02/26/2015 19:42 Ice Watch 14.5F 20F - 35 - - - 2 mhos 958 None None - -
02/26/2015 19:34 Ice Watch 14.9F 20F - 35 - - - 2 mhos 944 None None - -
Date/Time
(MST)
Sf
Temp Chem Water Layer Surface Precipitation
Sf Sub Frz Factor Pct Depth IcePct Cond Salin Type Intens Accum Rate
02/26/2015 19:27 Ice Watch 15.1F 21F - 25 - - - 2 mhos 931 None None - -
02/26/2015 19:24 Ice Watch 15.1F 21F - 20 - - - 2 mhos 931 None None - -
02/26/2015 19:14 Ice Watch 15.4F 21F - 15 - - - 2 mhos 918 None None - -
02/26/2015 19:12 Ice Watch 15.6F 21F - 15 - - - 2 mhos 916 None None - -
02/26/2015 19:04 Ice Watch 15.8F 22F - 20 - - - 2 mhos 914 None None - -
02/26/2015 18:57 Ice Watch 16.0F 22F - 25 - - - 2 mhos 891 None None - -
02/26/2015 18:54 Ice Watch 16.2F 22F - 25 - - - 2 mhos 890 None None - -
02/26/2015 18:44 Ice Watch 16.9F 23F - 30 - - - 3 mhos 874 None None - -
02/26/2015 18:42 Ice Watch 16.9F 23F - 20 - - - 3 mhos 875 None None - -
02/26/2015 18:34 Ice Watch 17.1F 23F - 30 - - - 3 mhos 872 None None - -
02/26/2015 18:27 Ice Watch 17.4F 24F - 35 - - - 3 mhos 850 None None - -
02/26/2015 18:24 Ice Watch 17.6F 24F - 40 - - - 3 mhos 849 None None - -
02/26/2015 18:14 Ice Watch 18.5F 24F - 45 - - - 3 mhos 826 None None - -
02/26/2015 18:12 Ice Watch 18.5F 25F - 45 - - - 3 mhos 826 None None - -
02/26/2015 18:04 Ice Watch 19.0F 25F - 55 - - - 3 mhos 814 None None - -
Date/Time
(MST)
Sf
Temp Chem Water Layer Surface Precipitation
Sf Sub Frz Factor Pct Depth IcePct Cond Salin Type Intens Accum Rate
02/26/2015 17:57 Ice Watch 19.4F 26F - 65 - - - 3 mhos 794 None None - -
02/26/2015 17:53 Ice Watch 19.8F 26F - 70 - - - 3 mhos 794 None None - -
02/26/2015 17:43 Ice Watch 20.5F 27F - 85 - - - 3 mhos 785 None None - -
02/26/2015 17:42 Ice Watch 20.7F 27F - 85 - - - 3 mhos 775 None None - -
02/26/2015 17:33 Ice Watch 21.2F 28F - 95 - - - 3 mhos 770 None None - -
02/26/2015 17:27 Ice Watch 21.7F 28F - 95 - - - 3 mhos 770 None None - -
02/26/2015 17:23 Ice Watch 22.1F 29F - 95 - - - 3 mhos 766 None None - -
02/26/2015 17:13 Ice Watch 23.9F 29F - 95 - - - 4 mhos 745 None None - -
02/26/2015 17:12 Ice Watch 24.3F 29F - 95 - - - 4 mhos 741 None None - -
02/26/2015 17:03 Ice Watch 26.2F 29F - 95 - - - 4 mhos 701 None None - -
02/26/2015 16:57 Ice Watch 27.0F 30F - 95 - - - 5 mhos 713 None None - -
02/26/2015 16:53 Ice Watch 27.5F 30F - 95 - - - 5 mhos 757 None None - -
02/26/2015 16:43 Ice Watch 28.6F 30F - 95 - - - 7 mhos 940 None None - -
02/26/2015 16:42 Ice Watch 28.8F 30F - 95 - - - 8 mhos 990 None None - -
02/26/2015 16:33 Ice Watch 29.7F 30F - 95 - - - 10 mhos 1144 None None - -
Date/Time
(MST)
Sf
Temp Chem Water Layer Surface Precipitation
Sf Sub Frz Factor Pct Depth IcePct Cond Salin Type Intens Accum Rate
02/26/2015 16:27 Ice Watch 30.2F 30F - 95 - - - 12 mhos 1379 None None - -
02/26/2015 16:23 Ice Watch 30.6F 30F - 95 - - - 13 mhos 1410 None None - -
02/26/2015 16:13 Ice Watch 31.3F 30F - 95 - - - 14 mhos 1491 None None - -
02/26/2015 16:12 Ice Watch 31.5F 30F - 95 - - - 14 mhos 1488 None None - -
02/26/2015 16:03 Trace Moisture 32.4F 30F - 95 - - - 14 mhos 1487 None None - -
02/26/2015 15:57 Trace Moisture 32.9F 30F - 95 - - - 14 mhos 1451 None None - -
02/26/2015 15:53 Trace Moisture 33.3F 30F - 95 - - - 13 mhos 1375 None None - -
02/26/2015 15:43 Trace Moisture 33.4F 30F - 95 - - - 14 mhos 1449 None None - -
02/26/2015 15:42 Trace Moisture 33.4F 30F - 95 - - - 14 mhos 1406 None None - -
02/26/2015 15:33 Trace Moisture 34.3F 30F - 95 - - - 14 mhos 1454 None None - -
02/26/2015 15:27 Trace Moisture 34.3F 30F - 95 - - - 13 mhos 1357 None None - -
02/26/2015 15:23 Trace Moisture 34.3F 30F - 95 - - - 16 mhos 1607 None None - -
02/26/2015 15:13 Trace Moisture 33.3F 30F - 95 - - - 16 mhos 1614 None None - -
02/26/2015 15:12 Trace Moisture 32.9F 30F - 95 - - - 16 mhos 1629 None None - -
02/26/2015 15:03 Trace Moisture 33.4F 30F - 95 - - - 14 mhos 1485 None None - -
Date/Time
(MST)
Sf
Temp Chem Water Layer Surface Precipitation
Sf Sub Frz Factor Pct Depth IcePct Cond Salin Type Intens Accum Rate
02/26/2015 14:57 Trace Moisture 35.1F 30F - 95 - - - 30 mhos 3165 None None - -
02/26/2015 14:52 Trace Moisture 34.5F 30F - 95 - - - 30 mhos 3188 None None - -
02/26/2015 14:42 Trace Moisture 37.4F 30F - 95 - - - 19 mhos 1836 None None - -
02/26/2015 14:42 Trace Moisture 37.4F 30F - 95 - - - 19 mhos 1869 None None - -
02/26/2015 14:32 Trace Moisture 37.0F 30F - 95 - - - 21 mhos 2124 None None - -
02/26/2015 14:27 Trace Moisture 38.1F 30F - 95 - - - 22 mhos 2189 None None - -
02/26/2015 14:22 Trace Moisture 38.1F 30F - 95 - - - 22 mhos 2204 None None - -
02/26/2015 14:12 Trace Moisture 37.2F 29F - 95 - - - 20 mhos 2003 None None - -
02/26/2015 14:12 Trace Moisture 36.1F 29F - 95 - - - 19 mhos 1964 None None - -
02/26/2015 14:02 Trace Moisture 35.2F 29F - 95 - - - 24 mhos 2457 None None - -
02/26/2015 13:57 Trace Moisture 34.5F 29F - 95 - - - 22 mhos 2239 None None - -
02/26/2015 13:52 Trace Moisture 34.3F 29F - 95 - - - 20 mhos 2063 None None - -
02/26/2015 13:42 Trace Moisture 35.4F 29F - 95 - - - 18 mhos 1772 None None - -
02/26/2015 13:42 Trace Moisture 35.4F 29F - 95 - - - 17 mhos 1748 None None - -
02/26/2015 13:32 Trace Moisture 35.4F 29F - 95 - - - 17 mhos 1725 None None - -
Date/Time
(MST)
Sf
Temp Chem Water Layer Surface Precipitation
Sf Sub Frz Factor Pct Depth IcePct Cond Salin Type Intens Accum Rate
02/26/2015 13:27 Trace Moisture 34.7F 28F - 95 - - - 16 mhos 1638 None None - -
02/26/2015 13:22 Trace Moisture 35.2F 28F - 95 - - - 12 mhos 1212 None None - -
02/26/2015 13:12 Trace Moisture 35.8F 28F - 95 - - - 14 mhos 1431 None None - -
02/26/2015 13:12 Trace Moisture 35.8F 28F - 95 - - - 14 mhos 1431 None None - -
02/26/2015 13:02 Trace Moisture 37.2F 28F - 95 - - - 6 mhos 589 None None - -
02/26/2015 12:57 Trace Moisture 38.3F 27F - 95 - - - 14 mhos 1393 None None - -
02/26/2015 12:52 Trace Moisture 40.5F 27F - 95 - - - 20 mhos 1931 None None - -
02/26/2015 12:42 Trace Moisture 36.9F 27F - 95 - - - 13 mhos 1308 None None - -
02/26/2015 12:42 Trace Moisture 37.0F 27F - 95 - - - 14 mhos 1342 None None - -
02/26/2015 12:32 Trace Moisture 36.9F 26F - 95 - - - 15 mhos 1459 None None - -
02/26/2015 12:27 Trace Moisture 35.1F 26F - 95 - - - 18 mhos 1787 None None - -
02/26/2015 12:22 Trace Moisture 33.8F 26F - 95 - - - 14 mhos 1385 None None - -
02/26/2015 12:12 Ice Watch 30.2F 26F - 95 - - - 6 mhos 642 None None - -
02/26/2015 12:12 Ice Watch 29.8F 26F - 95 - - - 5 mhos 615 None None - -
02/26/2015 12:02 Ice Watch 29.8F 26F - 95 - - - 6 mhos 685 None None - -
Date/Time
(MST)
Sf
Temp Chem Water Layer Surface Precipitation
Sf Sub Frz Factor Pct Depth IcePct Cond Salin Type Intens Accum Rate
02/26/2015 11:57 Ice Watch 30.4F 26F - 95 - - - 7 mhos 750 None None - -
02/26/2015 11:52 Ice Watch 29.8F 26F - 95 - - - 6 mhos 691 None None - -
02/26/2015 11:42 Ice Watch 29.3F 25F - 95 - - - 4 mhos 491 None None - -
02/26/2015 11:42 Ice Watch 29.1F 25F - 95 - - - 4 mhos 488 None None - -
02/26/2015 11:31 Ice Watch 27.9F 25F - 95 - - - 1 mhos 198 None None - -
02/26/2015 11:27 Ice Watch 27.0F 25F - 95 - - - 1 mhos 126 None None - -
02/26/2015 11:21 Ice Watch 26.4F 25F - 95 - - - 0 mhos 64 None None - -
02/26/2015 11:12 Ice Watch 24.8F 25F - 95 - - - 0 mhos 31 None None - -
02/26/2015 11:11 Ice Watch 24.8F 25F - 90 - - - 0 mhos 31 None None - -
02/26/2015 11:01 Ice Watch 23.7F 24F - 80 - - - 0 mhos 34 None None - -
02/26/2015 10:57 Ice Watch 23.7F 24F - 80 - - - 0 mhos 32 None None - -
02/26/2015 10:51 Ice Watch 23.2F 24F - 70 - - - 0 mhos 34 None None - -
02/26/2015 10:42 Ice Watch 22.6F 24F - 65 - - - 0 mhos 36 None None - -
02/26/2015 10:41 Ice Watch 22.6F 24F - 65 - - - 0 mhos 36 None None - -
02/26/2015 10:31 Ice Watch 22.5F 24F - 60 - - - 0 mhos 36 None None - -
Date/Time
(MST)
Sf
Temp Chem Water Layer Surface Precipitation
Sf Sub Frz Factor Pct Depth IcePct Cond Salin Type Intens Accum Rate
02/26/2015 10:27 Ice Watch 22.3F 23F - 60 - - - 0 mhos 37 None None - -
02/26/2015 10:21 Ice Watch 22.1F 23F - 55 - - - 0 mhos 39 None None - -
02/26/2015 10:12 Ice Watch 20.1F 22F - 40 - - - 0 mhos 45 None None - -
02/26/2015 10:11 Ice Watch 20.1F 22F - 40 - - - 0 mhos 45 None None - -
02/26/2015 10:01 Ice Watch 20.1F 22F - 40 - - - 0 mhos 44 None None - -
02/26/2015 09:57 Ice Watch 20.1F 22F - 40 - - - 0 mhos 45 None None - -
02/26/2015 09:51 Ice Watch 19.2F 22F - 40 - - - 0 mhos 48 None None - -
02/26/2015 09:42 Ice Watch 18.9F 21F - 35 - - - 0 mhos 50 None None - -
02/26/2015 09:41 Ice Watch 18.5F 21F - 35 - - - 0 mhos 51 None None - -
02/26/2015 09:31 Ice Watch 18.5F 21F - 35 - - - 0 mhos 51 None None - -
02/26/2015 09:27 Ice Watch 18.1F 21F - 35 - - - 0 mhos 52 None None - -
02/26/2015 09:21 Ice Watch 18.0F 21F - 35 - - - 0 mhos 52 None None - -
02/26/2015 09:12 Ice Watch 17.8F 21F - 35 - - - 0 mhos 54 None None - -
02/26/2015 09:11 Ice Watch 17.8F 21F - 35 - - - 0 mhos 54 None None - -
02/26/2015 09:01 Ice Watch 17.6F 21F - 30 - - - 0 mhos 53 None None - -
Date/Time
(MST)
Sf
Temp Chem Water Layer Surface Precipitation
Sf Sub Frz Factor Pct Depth IcePct Cond Salin Type Intens Accum Rate
02/26/2015 08:57 Ice Watch 17.4F 21F - 35 - - - 0 mhos 50 None None - -
02/26/2015 08:51 Ice Watch 17.4F 21F - 30 - - - 0 mhos 50 None None - -
02/26/2015 08:42 Ice Watch 17.4F 21F - 30 - - - 0 mhos 50 None None - -
02/26/2015 08:40 Ice Watch 17.4F 21F - 30 - - - 0 mhos 50 None None - -
02/26/2015 08:30 Ice Watch 17.1F 21F - 30 - - - 0 mhos 51 None None - -
02/26/2015 08:27 Ice Watch 17.1F 21F - 30 - - - 0 mhos 51 None None - -
02/26/2015 08:20 Ice Watch 17.1F 21F - 30 - - - 0 mhos 51 None None - -
02/26/2015 08:12 Ice Watch 17.1F 21F - 30 - - - 0 mhos 50 None None - -
02/26/2015 08:10 Ice Watch 17.1F 21F - 30 - - - 0 mhos 50 None None - -
02/26/2015 08:00 Ice Watch 17.2F 21F - 30 - - - 0 mhos 49 None None - -
02/26/2015 07:57 Ice Watch 17.1F 21F - 30 - - - 0 mhos 49 None None - -
02/26/2015 07:50 Ice Watch 16.9F 21F - 30 - - - 0 mhos 49 None None - -
02/26/2015 07:42 Ice Watch 16.9F 21F - 30 - - - 0 mhos 49 None None - -
02/26/2015 07:40 Ice Watch 16.9F 21F - 30 - - - 0 mhos 49 None None - -
02/26/2015 07:30 Ice Watch 16.9F 21F - 30 - - - 0 mhos 49 None None - -
Date/Time
(MST)
Sf
Temp Chem Water Layer Surface Precipitation
Sf Sub Frz Factor Pct Depth IcePct Cond Salin Type Intens Accum Rate
02/26/2015 07:27 Ice Watch 16.9F 21F - 25 - - - 0 mhos 49 None None - -
02/26/2015 07:20 Ice Watch 16.9F 21F - 25 - - - 0 mhos 48 None None - -
02/26/2015 07:12 Ice Watch 16.9F 21F - 25 - - - 0 mhos 47 None None - -
02/26/2015 07:10 Ice Watch 16.9F 21F - 25 - - - 0 mhos 46 None None - -
02/26/2015 07:00 Ice Watch 17.1F 21F - 25 - - - 0 mhos 45 None None - -
02/26/2015 06:57 Ice Watch 17.1F 21F - 25 - - - 0 mhos 45 None None - -
02/26/2015 06:50 Ice Watch 17.2F 21F - 25 - - - 0 mhos 44 None None - -
02/26/2015 06:42 Ice Watch 17.4F 21F - 25 - - - 0 mhos 43 None None - -
02/26/2015 06:40 Ice Watch 17.4F 21F - 25 - - - 0 mhos 43 None None - -
02/26/2015 06:30 Ice Watch 17.8F 21F - 25 - - - 0 mhos 41 None None - -
02/26/2015 06:27 Ice Watch 17.8F 21F - 25 - - - 0 mhos 40 None None - -
02/26/2015 06:20 Ice Watch 17.6F 21F - 25 - - - 0 mhos 39 None None - -
02/26/2015 06:12 Ice Watch 17.8F 21F - 25 - - - 0 mhos 36 None None - -
02/26/2015 06:10 Ice Watch 17.8F 21F - 25 - - - 0 mhos 36 None None - -
02/26/2015 06:00 Ice Watch 18.0F 21F - 20 - - - 0 mhos 28 None None - -
Date/Time
(MST)
Sf
Temp Chem Water Layer Surface Precipitation
Sf Sub Frz Factor Pct Depth IcePct Cond Salin Type Intens Accum Rate
02/26/2015 05:57 Ice Watch 18.0F 21F - 20 - - - 0 mhos 26 None None - -
02/26/2015 05:50 Ice Watch 18.3F 22F - 20 - - - 0 mhos 23 None None - -
02/26/2015 05:42 Ice Watch 18.1F 22F - 20 - - - 0 mhos 20 None None - -
02/26/2015 05:40 Ice Watch 18.0F 22F - 20 - - - 0 mhos 18 None None - -
02/26/2015 05:30 Ice Watch 18.0F 22F - 20 - - - 0 mhos 13 None None - -
02/26/2015 05:27 Ice Watch 18.0F 22F - 20 - - - 0 mhos 12 None None - -
02/26/2015 05:19 Ice Watch 18.0F 22F - 20 - - - 0 mhos 9 None None - -
02/26/2015 05:12 Ice Watch 18.0F 22F - 15 - - - 0 mhos 7 None None - -
02/26/2015 05:09 Ice Watch 18.0F 22F - 15 - - - 0 mhos 7 None None - -
02/26/2015 04:59 Ice Watch 18.0F 22F - 10 - - - 0 mhos 6 None None - -
02/26/2015 04:57 Ice Watch 18.0F 22F - 5 - - - 0 mhos 6 None None - -
02/26/2015 04:49 Ice Watch 18.0F 22F - 5 - - - 0 mhos 6 None None - -
02/26/2015 04:42 Ice Watch 18.1F 22F - 5 - - - 0 mhos 6 None None - -
02/26/2015 04:39 Ice Watch 18.3F 22F - 5 - - - 0 mhos 6 None None - -
02/26/2015 04:29 Ice Watch 18.5F 22F - 5 - - - 0 mhos 6 None None - -
Date/Time
(MST)
Sf
Temp Chem Water Layer Surface Precipitation
Sf Sub Frz Factor Pct Depth IcePct Cond Salin Type Intens Accum Rate
02/26/2015 04:27 Ice Watch 18.5F 22F - 5 - - - 0 mhos 6 None None - -
02/26/2015 04:19 Ice Watch 18.5F 23F - 5 - - - 0 mhos 6 None None - -
02/26/2015 04:12 Ice Watch 18.5F 23F - 5 - - - 0 mhos 6 None None - -
02/26/2015 04:09 Ice Watch 18.5F 23F - 5 - - - 0 mhos 6 None None - -
02/26/2015 03:59 Ice Watch 18.7F 23F - 5 - - - 0 mhos 6 None None - -
02/26/2015 03:57 Ice Watch 18.9F 23F - 5 - - - 0 mhos 6 None None - -
02/26/2015 03:49 Ice Watch 19.0F 23F - 5 - - - 0 mhos 6 None None - -
02/26/2015 03:42 Ice Watch 19.0F 23F - 5 - - - 0 mhos 6 None None - -
02/26/2015 03:39 Ice Watch 19.0F 23F - 5 - - - 0 mhos 6 None None - -
02/26/2015 03:29 Ice Watch 19.2F 24F - 5 - - - 0 mhos 6 None None - -
02/26/2015 03:27 Ice Watch 19.4F 24F - 5 - - - 0 mhos 6 None None - -
02/26/2015 03:19 Ice Watch 19.6F 24F - 5 - - - 0 mhos 7 None None - -
02/26/2015 03:12 Ice Watch 19.8F 24F - 5 - - - 0 mhos 7 None None - -
02/26/2015 03:09 Ice Watch 19.8F 24F - 5 - - - 0 mhos 7 None None - -
02/26/2015 02:59 Ice Watch 20.1F 24F - 5 - - - 0 mhos 7 None None - -
Date/Time
(MST)
Sf
Temp Chem Water Layer Surface Precipitation
Sf Sub Frz Factor Pct Depth IcePct Cond Salin Type Intens Accum Rate
02/26/2015 02:57 Ice Watch 20.1F 24F - 5 - - - 0 mhos 7 None None - -
02/26/2015 02:49 Ice Watch 20.1F 24F - 5 - - - 0 mhos 7 None None - -
02/26/2015 02:42 Ice Watch 20.3F 24F - 5 - - - 0 mhos 7 None None - -
02/26/2015 02:39 Ice Watch 20.3F 24F - 5 - - - 0 mhos 7 None None - -
02/26/2015 02:29 Ice Watch 20.7F 24F - 5 - - - 0 mhos 7 None None - -
02/26/2015 02:27 Ice Watch 20.7F 24F - 5 - - - 0 mhos 7 None None - -
02/26/2015 02:19 Ice Watch 20.8F 25F - 5 - - - 0 mhos 7 None None - -
02/26/2015 02:12 Ice Watch 20.8F 25F - 5 - - - 0 mhos 7 None None - -
02/26/2015 02:08 Ice Watch 21.0F 25F - 5 - - - 0 mhos 7 None None - -
02/26/2015 01:58 Ice Watch 21.2F 25F - 5 - - - 0 mhos 7 None None - -
02/26/2015 01:57 Ice Watch 21.2F 25F - 5 - - - 0 mhos 7 None None - -
02/26/2015 01:48 Ice Watch 21.4F 25F - 5 - - - 0 mhos 7 None None - -
02/26/2015 01:42 Ice Watch 21.4F 25F - 5 - - - 0 mhos 7 None None - -
02/26/2015 01:38 Ice Watch 21.6F 25F - 5 - - - 0 mhos 7 None None - -
02/26/2015 01:28 Ice Watch 21.7F 25F - 5 - - - 0 mhos 7 None None - -
Date/Time
(MST)
Sf
Temp Chem Water Layer Surface Precipitation
Sf Sub Frz Factor Pct Depth IcePct Cond Salin Type Intens Accum Rate
02/26/2015 01:27 Ice Watch 21.7F 25F - 5 - - - 0 mhos 7 None None - -
02/26/2015 01:18 Ice Watch 21.9F 25F - 5 - - - 0 mhos 7 None None - -
02/26/2015 01:12 Ice Watch 21.9F 26F - 5 - - - 0 mhos 7 None None - -
02/26/2015 01:08 Ice Watch 21.9F 26F - 5 - - - 0 mhos 7 None None - -
02/26/2015 00:58 Ice Watch 22.1F 26F - 5 - - - 0 mhos 7 None None - -
02/26/2015 00:57 Ice Watch 22.1F 26F - 5 - - - 0 mhos 7 None None - -
02/26/2015 00:48 Ice Watch 22.1F 26F - 5 - - - 0 mhos 7 None None - -
02/26/2015 00:42 Ice Watch 22.3F 26F - 5 - - - 0 mhos 7 None None - -
02/26/2015 00:38 Ice Watch 22.5F 26F - 5 - - - 0 mhos 6 None None - -
02/26/2015 00:28 Ice Watch 23.0F 26F - 5 - - - 0 mhos 6 None None - -
02/26/2015 00:27 Ice Watch 23.0F 26F - 5 - - - 0 mhos 6 None None - -
02/26/2015 00:18 Ice Watch 23.2F 26F - 5 - - - 0 mhos 6 None None - -
02/26/2015 00:13 Ice Watch 23.2F 26F - 5 - - - 0 mhos 6 None None - -
02/26/2015 00:08 Ice Watch 23.2F 27F - 5 - - - 0 mhos 6 None None - -
02/25/2015 23:58 Ice Watch 23.5F 27F - 5 - - - 0 mhos 6 None None - -
Date/Time
(MST)
Sf
Temp Chem Water Layer Surface Precipitation
Sf Sub Frz Factor Pct Depth IcePct Cond Salin Type Intens Accum Rate
02/25/2015 23:48 Ice Watch 23.9F 27F - 10 - - - 0 mhos 5 None None - -
02/25/2015 23:42 Ice Watch 24.1F 27F - 10 - - - 0 mhos 6 None None - -
02/25/2015 23:38 Ice Watch 24.3F 28F - 10 - - - 0 mhos 5 None None - -
02/25/2015 23:28 Ice Watch 24.4F 28F - 10 - - - 0 mhos 5 None None - -
02/25/2015 23:27 Ice Watch 24.4F 28F - 10 - - - 0 mhos 5 None None - -
02/25/2015 23:18 Ice Watch 24.4F 28F - 10 - - - 0 mhos 5 None None - -
02/25/2015 23:12 Ice Watch 24.4F 28F - 10 - - - 0 mhos 5 None None - -
02/25/2015 23:08 Ice Watch 24.3F 28F - 10 - - - 0 mhos 5 None None - -
02/25/2015 22:58 Ice Watch 24.3F 28F - 10 - - - 0 mhos 5 None None - -
02/25/2015 22:57 Ice Watch 24.3F 28F - 10 - - - 0 mhos 5 None None - -
02/25/2015 22:48 Ice Watch 24.6F 28F - 10 - - - 0 mhos 5 None None - -
02/25/2015 22:42 Ice Watch 25.0F 28F - 10 - - - 0 mhos 5 None None - -
02/25/2015 22:38 Ice Watch 25.2F 28F - 10 - - - 0 mhos 5 None None - -
02/25/2015 22:27 Ice Watch 25.2F 28F - 10 - - - 0 mhos 4 None None - -
02/25/2015 22:27 Ice Watch 25.0F 28F - 10 - - - 0 mhos 4 None None - -
Date/Time
(MST)
Sf
Temp Chem Water Layer Surface Precipitation
Sf Sub Frz Factor Pct Depth IcePct Cond Salin Type Intens Accum Rate
02/25/2015 22:17 Ice Watch 25.5F 29F - 10 - - - 0 mhos 4 None None - -
02/25/2015 22:13 Ice Watch 26.1F 29F - 10 - - - 0 mhos 4 None None - -
02/25/2015 22:07 Ice Watch 26.1F 29F - 10 - - - 0 mhos 4 None None - -
02/25/2015 21:57 Ice Watch 25.9F 29F - 10 - - - 0 mhos 3 None None - -
02/25/2015 21:57 Ice Watch 25.7F 29F - 10 - - - 0 mhos 3 None None - -
02/25/2015 21:47 Ice Watch 25.5F 29F - 10 - - - 0 mhos 3 None None - -
02/25/2015 21:42 Ice Watch 25.7F 29F - 10 - - - 0 mhos 3 None None - -
02/25/2015 21:37 Ice Watch 25.9F 29F - 10 - - - 0 mhos 3 None None - -
02/25/2015 21:27 Ice Watch 26.2F 29F - 10 - - - 0 mhos 3 None None - -
02/25/2015 21:27 Ice Watch 26.2F 29F - 10 - - - 0 mhos 3 None None - -
02/25/2015 21:17 Ice Watch 26.6F 30F - 10 - - - 0 mhos 3 None None - -
02/25/2015 21:12 Ice Watch 26.4F 30F - 10 - - - 0 mhos 3 None None - -
02/25/2015 21:07 Ice Watch 26.4F 30F - 10 - - - 0 mhos 3 None None - -
Change End Date:
Copyright © 1998-2005 Surface Systems, Inc.
All Rights Reserved
Send comments about the data to:
SCAN Web ® is a registered trademark of Surface Systems, Inc.
SCAN Web Version 5.6